Main page
METAR-TAF:

METAR-TAF

Airports :

Copenhagen, Denmark

Copenhagen Airport

latitude: 55-37N, longitude: 012-39E, elevation: 5 m

Current weather observation

The report was made 33 minutes ago, at 04:50 UTC
Wind 4 kt from the North, varying between North/Northwest and Northeast
Temperature 2°C
Humidity 100%
Pressure 1026 hPa
Visibility: 0200 m
fog

METAR: EKCH 260450Z 01004KT 340V040 0200 R22L/0550N R04L/0500N R12/0450N FG VV002 02/02 Q1026 TEMPO 6000 NSW SCT002

Time: 07:23 (05:23 UTC)

Forecast

The report was made 1 hour and 28 minutes ago, at 03:55 UTC
Forecast valid from 26 at 03 UTC to 26 at 24 UTC
Wind 5 kt from the Northwest
Visibility: 6000 m
Few clouds at a height of 200 ft
Temporary
from 26 at 03 UTC to 26 at 07 UTC
Visibility: 0400 m
Broken clouds at a height of 200 ft
patches of fog
Becoming
from 26 at 10 UTC to 26 at 12 UTC
Wind 10 kt from the Southwest

TAF: EKCH 260355Z 2603/2624 32005KT 6000 FEW002 TEMPO 2603/2607 0400 BCFG BKN002 BECMG 2610/2612 22010KT

Weather observations and forecasts of more than 4000 airports (METAR and TAF reports).

The available stations are represented by yellow and red dots on the map.

Hover mouse over dot to see the name of the station.

Then click to see weather observations and forecasts.

To change the map : click on the green buttons with a black cross to zoom in, on the green button with a dash to zoom out, or on the green arrows for adjacent maps.


METAR-TAF: